M/y Unica — J8Y4072 — position and weather

sailwx.info

Track history (hours):
 
Tides and Currents Weather Stations Pressure Air Temp Water Temp Dewpoint Dewpoint Depression Visibility Wind Speed Wind Dir Waves Ship Positions

M/y Unica

Last reported at 2014-Sep-25 11:31 UTC. Time now 2014-Nov-24 02:54 UTC.
Position N 43°43' E 007°25'.
Warning: this ship's position is 59 days out of date.

Length 30 m; draft 2 m.

Type: Pleasure craft. MMSI: 377319000.

Date/timePositionNaut miles runAvg speedWind from/ knotsBaromVisibWave heightAir tempDewpointWater temp
2014-Sep-25 11:31N 43°43' E 007°25'1212.5
2014-Sep-25 10:33N 43°37' E 007°11'3 3.0
2014-Sep-25 09:31N 43°35' E 007°07'0 0.0
2014-Sep-25 08:31N 43°35' E 007°07'0 0.0
2014-Sep-25 07:25N 43°35' E 007°07'0 0.0
2014-Sep-25 06:25N 43°35' E 007°07'0 0.0
2014-Sep-25 05:31N 43°35' E 007°07'0 0.0
2014-Sep-25 04:19N 43°35' E 007°07'0 0.0
2014-Sep-25 03:31N 43°35' E 007°07'0 0.0
2014-Sep-25 02:31N 43°35' E 007°07'0 0.0
2014-Sep-25 01:31N 43°35' E 007°07'0 0.0
2014-Sep-25 00:31N 43°35' E 007°07'0 0.0
2014-Sep-24 23:31N 43°35' E 007°07'0 0.0
2014-Sep-24 22:31N 43°35' E 007°07'0 0.0
2014-Sep-24 21:25N 43°35' E 007°07'0 0.0
2014-Sep-24 20:31N 43°35' E 007°07'0 0.0
2014-Sep-24 19:25N 43°35' E 007°07'0 0.0
2014-Sep-24 18:25N 43°35' E 007°07'0 0.0
2014-Sep-24 17:31N 43°35' E 007°07'0 0.0
2014-Sep-24 16:31N 43°35' E 007°07'0 0.0
2014-Sep-24 15:25N 43°35' E 007°07'0 0.0
2014-Sep-24 14:31N 43°35' E 007°07'0 0.0
2014-Sep-24 13:19N 43°35' E 007°07'0 0.0
2014-Sep-24 12:31N 43°35' E 007°07'0 0.0
2014-Sep-24 11:31N 43°35' E 007°07'0 0.0
2014-Sep-24 10:31N 43°35' E 007°07'0 0.0
2014-Sep-24 09:31N 43°35' E 007°07'0 0.0
2014-Sep-24 08:31N 43°35' E 007°07'0 0.0
2014-Sep-24 07:25N 43°35' E 007°07'0 0.0
2014-Sep-24 06:31N 43°35' E 007°07'0 0.0
2014-Sep-24 05:31N 43°35' E 007°07'0 0.0
2014-Sep-24 04:31N 43°35' E 007°07'0 0.0
2014-Sep-24 03:25N 43°35' E 007°07'0 0.0
2014-Sep-24 02:31N 43°35' E 007°07'0 0.0
2014-Sep-24 01:25N 43°35' E 007°07'0 0.0
2014-Sep-24 00:25N 43°35' E 007°07'0 0.0
2014-Sep-23 23:31N 43°35' E 007°07'0 0.0
2014-Sep-23 22:25N 43°35' E 007°07'0 0.0
2014-Sep-23 21:31N 43°35' E 007°07'0 0.0
2014-Sep-23 20:31N 43°35' E 007°07'0 0.0
2014-Sep-23 19:31N 43°35' E 007°07'0 0.0
2014-Sep-23 18:31N 43°35' E 007°07'0 0.0
2014-Sep-23 17:19N 43°35' E 007°07'0 0.0
2014-Sep-23 16:31N 43°35' E 007°07'0 0.0
2014-Sep-23 15:25N 43°35' E 007°07'0 0.0
2014-Sep-23 14:30N 43°35' E 007°07'0 0.0
2014-Sep-23 13:31N 43°35' E 007°07'0 0.0
2014-Sep-23 12:30N 43°35' E 007°07'0 0.0
2014-Sep-23 11:31N 43°35' E 007°07'0 0.0
2014-Sep-23 10:30N 43°35' E 007°07'0 0.0
2014-Sep-23 09:25N 43°35' E 007°07'0 0.0
2014-Sep-23 08:30N 43°35' E 007°07'0 0.0
2014-Sep-23 07:31N 43°35' E 007°07'0 0.0
2014-Sep-23 06:06N 43°35' E 007°07'0 0.0
2014-Sep-23 05:24N 43°35' E 007°07'0 0.0
2014-Sep-23 04:30N 43°35' E 007°07'0 0.0
2014-Sep-23 03:31N 43°35' E 007°07'0 0.0
2014-Sep-23 02:30N 43°35' E 007°07'0 0.0
2014-Sep-23 01:31N 43°35' E 007°07'0 0.0
2014-Sep-23 00:30N 43°35' E 007°07'0 0.0
2014-Sep-22 23:24N 43°35' E 007°07'0 0.0
2014-Sep-22 22:25N 43°35' E 007°07'0 0.0
2014-Sep-22 21:31N 43°35' E 007°07'0 0.0
2014-Sep-22 20:30N 43°35' E 007°07'0 0.0
2014-Sep-22 19:18N 43°35' E 007°07'0 0.0
2014-Sep-22 18:31N 43°35' E 007°07'0 0.0
2014-Sep-22 17:30N 43°35' E 007°07'0 0.0
2014-Sep-22 16:30N 43°35' E 007°07'0 0.0
2014-Sep-22 15:30N 43°35' E 007°07'0 0.0
2014-Sep-22 14:33N 43°35' E 007°07'0 0.0
2014-Sep-22 13:33N 43°35' E 007°07'3 3.4
2014-Sep-22 12:33N 43°37' E 007°12'8 7.8
2014-Sep-22 11:32N 43°42' E 007°20'1 0.5
2014-Sep-22 10:33N 43°42' E 007°20'0 0.0
2014-Sep-21 11:12N 43°42' E 007°20'0 0.0
2014-Sep-21 10:30N 43°42' E 007°20'0 0.0
2014-Sep-21 09:30N 43°42' E 007°20'0 0.0
2014-Sep-21 08:30N 43°42' E 007°20'0 0.0
2014-Sep-21 07:12N 43°42' E 007°20'0 0.0
2014-Sep-21 06:30N 43°42' E 007°20'0 0.0
2014-Sep-21 05:18N 43°42' E 007°20'0 0.0
2014-Sep-21 04:30N 43°42' E 007°20'0 0.0
2014-Sep-21 03:24N 43°42' E 007°20'0 0.0
2014-Sep-21 02:30N 43°42' E 007°20'0 0.0
2014-Sep-21 01:30N 43°42' E 007°20'0 0.0
2014-Sep-21 00:24N 43°42' E 007°20'0 0.0
2014-Sep-20 23:30N 43°42' E 007°20'0 0.0
2014-Sep-20 22:30N 43°42' E 007°20'0 0.0
2014-Sep-20 21:30N 43°42' E 007°20'0 0.0
2014-Sep-20 20:30N 43°42' E 007°20'0 0.0
2014-Sep-20 19:30N 43°42' E 007°20'0 0.0
2014-Sep-20 18:24N 43°42' E 007°20'0 0.0
2014-Sep-20 17:30N 43°42' E 007°20'0 0.0
2014-Sep-20 16:30N 43°42' E 007°20'0 0.0
2014-Sep-20 15:30N 43°42' E 007°20'0 0.0
2014-Sep-20 14:30N 43°42' E 007°20'0 0.0
2014-Sep-20 13:24N 43°42' E 007°20'0 0.2
2014-Sep-20 12:16N 43°42' E 007°21'0 0.0
2014-Sep-20 11:28N 43°42' E 007°21'0 0.0
2014-Sep-20 10:28N 43°42' E 007°21'1 0.7
2014-Sep-20 09:33N 43°43' E 007°21'  
2014-Sep-15 19:25N 42°38' E 010°14'  
Track history (hours):
 
Tides and Currents Weather Stations Pressure Air Temp Water Temp Dewpoint Dewpoint Depression Visibility Wind Speed Wind Dir Waves Ship Positions

M/y Unica

Last reported at 2014-Sep-25 11:31 UTC. Time now 2014-Nov-24 02:54 UTC.
Position N 43°43' E 007°25'.
Warning: this ship's position is 59 days out of date.

Length 30 m; draft 2 m.

Type: Pleasure craft. MMSI: 377319000.

Date/timePositionNaut miles runAvg speedWind from/ knotsBaromVisibWave heightAir tempDewpointWater temp
2014-Sep-25 11:31N 43°43' E 007°25'1212.5
2014-Sep-25 10:33N 43°37' E 007°11'3 3.0
2014-Sep-25 09:31N 43°35' E 007°07'0 0.0
2014-Sep-25 08:31N 43°35' E 007°07'0 0.0
2014-Sep-25 07:25N 43°35' E 007°07'0 0.0
2014-Sep-25 06:25N 43°35' E 007°07'0 0.0
2014-Sep-25 05:31N 43°35' E 007°07'0 0.0
2014-Sep-25 04:19N 43°35' E 007°07'0 0.0
2014-Sep-25 03:31N 43°35' E 007°07'0 0.0
2014-Sep-25 02:31N 43°35' E 007°07'0 0.0
2014-Sep-25 01:31N 43°35' E 007°07'0 0.0
2014-Sep-25 00:31N 43°35' E 007°07'0 0.0
2014-Sep-24 23:31N 43°35' E 007°07'0 0.0
2014-Sep-24 22:31N 43°35' E 007°07'0 0.0
2014-Sep-24 21:25N 43°35' E 007°07'0 0.0
2014-Sep-24 20:31N 43°35' E 007°07'0 0.0
2014-Sep-24 19:25N 43°35' E 007°07'0 0.0
2014-Sep-24 18:25N 43°35' E 007°07'0 0.0
2014-Sep-24 17:31N 43°35' E 007°07'0 0.0
2014-Sep-24 16:31N 43°35' E 007°07'0 0.0
2014-Sep-24 15:25N 43°35' E 007°07'0 0.0
2014-Sep-24 14:31N 43°35' E 007°07'0 0.0
2014-Sep-24 13:19N 43°35' E 007°07'0 0.0
2014-Sep-24 12:31N 43°35' E 007°07'0 0.0
2014-Sep-24 11:31N 43°35' E 007°07'0 0.0
2014-Sep-24 10:31N 43°35' E 007°07'0 0.0
2014-Sep-24 09:31N 43°35' E 007°07'0 0.0
2014-Sep-24 08:31N 43°35' E 007°07'0 0.0
2014-Sep-24 07:25N 43°35' E 007°07'0 0.0
2014-Sep-24 06:31N 43°35' E 007°07'0 0.0
2014-Sep-24 05:31N 43°35' E 007°07'0 0.0
2014-Sep-24 04:31N 43°35' E 007°07'0 0.0
2014-Sep-24 03:25N 43°35' E 007°07'0 0.0
2014-Sep-24 02:31N 43°35' E 007°07'0 0.0
2014-Sep-24 01:25N 43°35' E 007°07'0 0.0
2014-Sep-24 00:25N 43°35' E 007°07'0 0.0
2014-Sep-23 23:31N 43°35' E 007°07'0 0.0
2014-Sep-23 22:25N 43°35' E 007°07'0 0.0
2014-Sep-23 21:31N 43°35' E 007°07'0 0.0
2014-Sep-23 20:31N 43°35' E 007°07'0 0.0
2014-Sep-23 19:31N 43°35' E 007°07'0 0.0
2014-Sep-23 18:31N 43°35' E 007°07'0 0.0
2014-Sep-23 17:19N 43°35' E 007°07'0 0.0
2014-Sep-23 16:31N 43°35' E 007°07'0 0.0
2014-Sep-23 15:25N 43°35' E 007°07'0 0.0
2014-Sep-23 14:30N 43°35' E 007°07'0 0.0
2014-Sep-23 13:31N 43°35' E 007°07'0 0.0
2014-Sep-23 12:30N 43°35' E 007°07'0 0.0
2014-Sep-23 11:31N 43°35' E 007°07'0 0.0
2014-Sep-23 10:30N 43°35' E 007°07'0 0.0
2014-Sep-23 09:25N 43°35' E 007°07'0 0.0
2014-Sep-23 08:30N 43°35' E 007°07'0 0.0
2014-Sep-23 07:31N 43°35' E 007°07'0 0.0
2014-Sep-23 06:06N 43°35' E 007°07'0 0.0
2014-Sep-23 05:24N 43°35' E 007°07'0 0.0
2014-Sep-23 04:30N 43°35' E 007°07'0 0.0
2014-Sep-23 03:31N 43°35' E 007°07'0 0.0
2014-Sep-23 02:30N 43°35' E 007°07'0 0.0
2014-Sep-23 01:31N 43°35' E 007°07'0 0.0
2014-Sep-23 00:30N 43°35' E 007°07'0 0.0
2014-Sep-22 23:24N 43°35' E 007°07'0 0.0
2014-Sep-22 22:25N 43°35' E 007°07'0 0.0
2014-Sep-22 21:31N 43°35' E 007°07'0 0.0
2014-Sep-22 20:30N 43°35' E 007°07'0 0.0
2014-Sep-22 19:18N 43°35' E 007°07'0 0.0
2014-Sep-22 18:31N 43°35' E 007°07'0 0.0
2014-Sep-22 17:30N 43°35' E 007°07'0 0.0
2014-Sep-22 16:30N 43°35' E 007°07'0 0.0
2014-Sep-22 15:30N 43°35' E 007°07'0 0.0
2014-Sep-22 14:33N 43°35' E 007°07'0 0.0
2014-Sep-22 13:33N 43°35' E 007°07'3 3.4
2014-Sep-22 12:33N 43°37' E 007°12'8 7.8
2014-Sep-22 11:32N 43°42' E 007°20'1 0.5
2014-Sep-22 10:33N 43°42' E 007°20'0 0.0
2014-Sep-21 11:12N 43°42' E 007°20'0 0.0
2014-Sep-21 10:30N 43°42' E 007°20'0 0.0
2014-Sep-21 09:30N 43°42' E 007°20'0 0.0
2014-Sep-21 08:30N 43°42' E 007°20'0 0.0
2014-Sep-21 07:12N 43°42' E 007°20'0 0.0
2014-Sep-21 06:30N 43°42' E 007°20'0 0.0
2014-Sep-21 05:18N 43°42' E 007°20'0 0.0
2014-Sep-21 04:30N 43°42' E 007°20'0 0.0
2014-Sep-21 03:24N 43°42' E 007°20'0 0.0
2014-Sep-21 02:30N 43°42' E 007°20'0 0.0
2014-Sep-21 01:30N 43°42' E 007°20'0 0.0
2014-Sep-21 00:24N 43°42' E 007°20'0 0.0
2014-Sep-20 23:30N 43°42' E 007°20'0 0.0
2014-Sep-20 22:30N 43°42' E 007°20'0 0.0
2014-Sep-20 21:30N 43°42' E 007°20'0 0.0
2014-Sep-20 20:30N 43°42' E 007°20'0 0.0
2014-Sep-20 19:30N 43°42' E 007°20'0 0.0
2014-Sep-20 18:24N 43°42' E 007°20'0 0.0
2014-Sep-20 17:30N 43°42' E 007°20'0 0.0
2014-Sep-20 16:30N 43°42' E 007°20'0 0.0
2014-Sep-20 15:30N 43°42' E 007°20'0 0.0
2014-Sep-20 14:30N 43°42' E 007°20'0 0.0
2014-Sep-20 13:24N 43°42' E 007°20'0 0.2
2014-Sep-20 12:16N 43°42' E 007°21'0 0.0
2014-Sep-20 11:28N 43°42' E 007°21'0 0.0
2014-Sep-20 10:28N 43°42' E 007°21'1 0.7
2014-Sep-20 09:33N 43°43' E 007°21'  
2014-Sep-15 19:25N 42°38' E 010°14'  

Dump ship's entire track history